Winwood, Arizona
Current Conditions -  °F | °C
As of 5:56 PM on Thursday 27 Nov 2014 (Local Time) from KDUG Reporting Station
Clear Clear  
Wind Chill: 61°   Ceiling: Unl
Heat Index: 61°   Visibility: 10mi
Dew Point: 21°   Wind: 8mph
Humidity: 21%   Direction: 90°E
Pressure: 30.23"   Gusts: NA
Location:  31.4799°N, 109.96°W
Report Text: KDUG 280056Z AUTO 09007KT 10SM CLR 16/M06 A3023 RMK AO2 SLP215 T01611061
Loading
Personal Weather Stations






























Interactive Weather Map New forecast layout! Learn more

10-Day Weather Forecast

Advertisements
Track Severe Weather on mobile